Alexander, IL

5:29 AM CDT on May 30, 2015 (GMT -0500)
Smith Farms | | Change Station
CLOSE
Current Station
Personal Weather Station
Location: New Berlin, IL
Elevation: 656 ft
Nearby Weather Stations

Elev 656 ft 39.72 °N, 89.92 °W | Updated 6 minutes ago

Overcast
Overcast
64.8 °F
Feels Like 64.8 °F
N
1.7
Wind Variable Wind from East

Today
High -- | Low -- °F
--% Chance of Precip.
Yesterday
High -- | Low -- °F
Precip. -- in
5:35 AM 8:20 PM
Waxing Gibbous, 89% visible
Pressure 29.96 in
Visibility 10.0 miles
Clouds Mostly Cloudy 2500 ft
Mostly Cloudy 4600 ft
Overcast 8000 ft
Dew Point 63 °F
Humidity 94%
Rainfall 1.21 in
Snow Depth Not available.
UV 0 out of 12
Pollen 7.60 out of 12
Air Quality Not available.
Flu Activity Sporadic
METAR KIJX 301015Z AUTO 07003KT 10SM -RA BKN025 BKN046 OVC080 20/19 A2996 RMK AO2 P0001 T01950186

More Conditions Fewer Conditions

Pressure 29.96 in
Visibility 10.0 miles
Clouds Mostly Cloudy 2500 ft
Mostly Cloudy 4600 ft
Overcast 8000 ft
Dew Point 63 °F
Humidity 94%
Rainfall 1.21 in
Snow Depth Not available.
UV 0 out of 12
Pollen 7.60 out of 12
Air Quality Not available.
Flu Activity Sporadic
METAR KIJX 301015Z AUTO 07003KT 10SM -RA BKN025 BKN046 OVC080 20/19 A2996 RMK AO2 P0001 T01950186

More Conditions Fewer Conditions

10-Day Weather Forecast

Almanac

Astronomy

May. 30, 2015 Rise Set
Actual Time
Civil Twilight
Nautical Twilight
Astronomical Twilight
Moon
Length of Visible Light
Length of Day
Tomorrow will be .
, % of the Moon is Illuminated

Today's Extremes

State Highs State Lows

Community

WunderPhotos

Upload Photos

1,825,476 photos uploaded!

WunderBlogs® & News

Nearby

Air Quality

  Air Quality AQ Index Pollutant
Not available.

Snow Depth

Station Depth Elevation

Earthquake Activity

City Distance Mag. Time & Date
Minimum magnitude displayed is 2.5.

Coastal Water Temperatures

Place Temperature

Stations

Nearby Weather Stations

Station Location Temp. Windchill Dew Point Humidity Wind Precip. Elev Updated Type